createdAt,value
2024-01-26T00:02:41.042Z,10.60
2024-01-26T00:05:42.380Z,12.85
2024-01-26T00:08:44.096Z,11.77
2024-01-26T00:11:45.436Z,12.80
2024-01-26T00:14:46.743Z,11.55
2024-01-26T00:17:48.598Z,10.57
2024-01-26T00:20:50.012Z,12.35
2024-01-26T00:23:51.334Z,12.18
2024-01-26T00:26:52.708Z,12.30
2024-01-26T00:29:53.988Z,12.52
2024-01-26T00:32:55.614Z,13.45
2024-01-26T00:35:59.968Z,11.70
2024-01-26T00:39:01.268Z,11.52
2024-01-26T00:42:02.590Z,12.27
2024-01-26T00:45:04.698Z,11.63
2024-01-26T00:48:06.410Z,11.40
2024-01-26T00:51:07.864Z,12.30
2024-01-26T00:54:09.218Z,11.85
2024-01-26T00:57:10.565Z,12.93
2024-01-26T01:00:12.252Z,11.65
2024-01-26T01:03:13.659Z,12.70
2024-01-26T01:06:15.114Z,12.50
2024-01-26T01:09:16.470Z,12.75
2024-01-26T01:12:18.363Z,11.55
2024-01-26T01:15:19.704Z,13.45
2024-01-26T01:18:22.421Z,14.73
2024-01-26T01:21:24.126Z,14.70
2024-01-26T01:24:25.561Z,14.10
2024-01-26T01:27:26.962Z,13.32
2024-01-26T01:30:28.751Z,12.63
2024-01-26T01:33:30.598Z,11.48
2024-01-26T01:36:31.972Z,12.43
2024-01-26T01:39:33.316Z,12.15
2024-01-26T01:42:34.688Z,11.77
2024-01-26T01:45:36.062Z,12.10
2024-01-26T01:48:37.499Z,12.30
2024-01-26T01:51:40.286Z,13.13
2024-01-26T01:54:41.845Z,12.82
2024-01-26T01:57:45.653Z,11.85
2024-01-26T02:00:47.786Z,11.85
2024-01-26T02:03:49.257Z,11.00
2024-01-26T02:06:57.414Z,11.75
2024-01-26T02:09:58.706Z,11.75
2024-01-26T02:13:00.243Z,11.30
2024-01-26T02:16:01.566Z,12.27
2024-01-26T02:19:03.040Z,10.27
2024-01-26T02:22:04.803Z,11.43
2024-01-26T02:25:06.711Z,11.95
2024-01-26T02:28:08.040Z,12.23
2024-01-26T02:31:09.320Z,11.90
2024-01-26T02:34:14.096Z,12.23
2024-01-26T02:37:15.521Z,12.93
2024-01-26T02:40:16.837Z,12.25
2024-01-26T02:43:18.203Z,12.23
2024-01-26T02:46:19.559Z,12.30
2024-01-26T02:49:21.292Z,11.25
2024-01-26T02:52:22.739Z,11.13
2024-01-26T02:55:24.061Z,12.48
2024-01-26T02:58:27.613Z,13.10
2024-01-26T03:01:28.991Z,10.98
2024-01-26T03:04:30.312Z,10.60
2024-01-26T03:07:31.615Z,10.32
2024-01-26T03:10:33.217Z,11.88
2024-01-26T03:13:34.612Z,11.02
2024-01-26T03:16:36.608Z,8.80
2024-01-26T03:19:38.062Z,8.60
2024-01-26T03:22:39.444Z,8.88
2024-01-26T03:25:40.908Z,7.47
2024-01-26T03:28:42.174Z,8.68
2024-01-26T03:31:43.597Z,8.82
2024-01-26T03:34:45.343Z,8.55
2024-01-26T03:37:46.868Z,9.70
2024-01-26T03:40:48.186Z,7.38
2024-01-26T03:43:52.946Z,9.45
2024-01-26T03:46:54.328Z,8.43
2024-01-26T03:49:55.769Z,6.63
2024-01-26T03:52:57.067Z,7.53
2024-01-26T03:55:58.338Z,6.93
2024-01-26T03:58:59.626Z,7.80
2024-01-26T04:02:01.236Z,6.90
2024-01-26T04:05:03.454Z,6.72
2024-01-26T04:08:05.028Z,6.28
2024-01-26T04:11:06.434Z,6.63
2024-01-26T04:14:07.764Z,6.38
2024-01-26T04:17:09.145Z,5.20
2024-01-26T04:20:11.007Z,5.72
2024-01-26T04:23:12.340Z,5.53
2024-01-26T04:26:13.683Z,5.32
2024-01-26T04:29:17.691Z,4.93
2024-01-26T04:32:19.930Z,4.80
2024-01-26T04:35:21.333Z,5.70
2024-01-26T04:38:22.669Z,4.80
2024-01-26T04:41:23.983Z,5.28
2024-01-26T04:44:25.485Z,4.70
2024-01-26T04:47:26.896Z,4.03
2024-01-26T04:50:28.289Z,4.13
2024-01-26T04:53:29.669Z,4.82
2024-01-26T04:56:31.020Z,4.03
2024-01-26T04:59:35.712Z,3.42
2024-01-26T05:02:37.188Z,3.58
2024-01-26T05:05:38.667Z,3.38
2024-01-26T05:08:40.912Z,3.75
2024-01-26T05:11:42.387Z,3.45
2024-01-26T05:14:43.837Z,2.67
2024-01-26T05:17:46.551Z,3.03
2024-01-26T05:20:47.915Z,3.05
2024-01-26T05:23:49.284Z,3.10
2024-01-26T05:26:50.724Z,2.80
2024-01-26T05:29:52.028Z,2.47
2024-01-26T05:32:53.545Z,2.88
2024-01-26T05:35:54.929Z,3.17
2024-01-26T05:38:56.338Z,3.03
2024-01-26T05:41:57.719Z,2.70
2024-01-26T05:44:59.182Z,2.92
2024-01-26T05:48:00.697Z,3.67
2024-01-26T05:51:02.139Z,2.58
2024-01-26T05:54:03.811Z,2.78
2024-01-26T05:57:05.387Z,3.15
2024-01-26T06:00:07.556Z,3.55
2024-01-26T06:03:09.095Z,3.47
2024-01-26T06:06:10.566Z,2.70
2024-01-26T06:09:11.976Z,2.83
2024-01-26T06:12:13.432Z,3.70
2024-01-26T06:15:15.762Z,4.53
2024-01-26T06:18:17.427Z,4.15
2024-01-26T06:21:19.126Z,4.40
2024-01-26T06:24:20.568Z,3.42
2024-01-26T06:27:22.040Z,4.45
2024-01-26T06:30:23.414Z,5.35
2024-01-26T06:33:24.943Z,4.97
2024-01-26T06:36:26.413Z,5.57
2024-01-26T06:39:27.863Z,5.63
2024-01-26T06:42:30.754Z,4.90
2024-01-26T06:45:32.626Z,5.18
2024-01-26T06:48:34.127Z,5.15
2024-01-26T06:51:35.588Z,4.80
2024-01-26T06:54:39.128Z,5.90
2024-01-26T06:57:40.436Z,4.93
2024-01-26T07:00:44.378Z,5.25
2024-01-26T07:03:46.779Z,4.65
2024-01-26T07:06:48.349Z,5.97
2024-01-26T07:09:49.668Z,5.20
2024-01-26T07:12:51.116Z,5.22
2024-01-26T07:15:55.019Z,5.32
2024-01-26T07:18:56.462Z,5.25
2024-01-26T07:21:57.874Z,5.28
2024-01-26T07:24:59.188Z,4.95
2024-01-26T07:28:00.522Z,4.00
2024-01-26T07:31:01.833Z,3.50
2024-01-26T07:34:03.246Z,3.67
2024-01-26T07:37:04.590Z,3.10
2024-01-26T07:40:06.352Z,3.22
2024-01-26T07:43:08.202Z,3.08
2024-01-26T07:46:09.565Z,4.43
2024-01-26T07:49:11.331Z,3.05
2024-01-26T07:52:12.752Z,2.97
2024-01-26T07:55:14.282Z,2.35
2024-01-26T07:58:15.645Z,2.90
2024-01-26T08:01:17.111Z,2.97
2024-01-26T08:04:19.048Z,3.83
2024-01-26T08:07:20.729Z,3.78
2024-01-26T08:10:22.329Z,3.70
2024-01-26T08:13:23.908Z,4.13
2024-01-26T08:16:27.282Z,4.30
2024-01-26T08:19:30.017Z,4.07
2024-01-26T08:22:31.821Z,3.63
2024-01-26T08:25:33.344Z,4.55
2024-01-26T08:28:34.798Z,8.20
2024-01-26T08:34:37.889Z,3.67
2024-01-26T08:37:39.643Z,4.78
2024-01-26T08:40:41.004Z,3.15
2024-01-26T08:43:43.765Z,3.45
2024-01-26T08:46:45.700Z,3.22
2024-01-26T08:49:47.045Z,2.90
2024-01-26T08:52:48.545Z,3.15
2024-01-26T08:55:49.865Z,3.50
2024-01-26T08:58:53.930Z,3.85
2024-01-26T09:01:55.225Z,4.22
2024-01-26T09:04:56.880Z,3.45
2024-01-26T09:07:58.392Z,3.67
2024-01-26T09:10:59.704Z,4.38
2024-01-26T09:14:01.041Z,3.65
2024-01-26T09:17:02.379Z,4.95
2024-01-26T09:20:04.728Z,4.18
2024-01-26T09:23:06.247Z,4.55
2024-01-26T09:26:07.578Z,4.55
2024-01-26T09:29:09.030Z,5.43
2024-01-26T09:32:10.445Z,4.63
2024-01-26T09:35:13.306Z,4.63
2024-01-26T09:38:14.794Z,4.70
2024-01-26T09:41:16.190Z,4.15
2024-01-26T09:44:17.527Z,4.55
2024-01-26T09:47:20.587Z,3.55
2024-01-26T09:50:24.988Z,4.30
2024-01-26T09:53:27.096Z,4.50
2024-01-26T09:56:29.898Z,4.28
2024-01-26T09:59:31.226Z,4.07
2024-01-26T10:02:33.049Z,3.65
2024-01-26T10:05:34.482Z,3.97
2024-01-26T10:08:42.369Z,3.67
2024-01-26T10:11:43.737Z,3.70
2024-01-26T10:14:45.105Z,3.47
2024-01-26T10:17:46.548Z,4.10
2024-01-26T10:20:48.723Z,3.72
2024-01-26T10:23:50.811Z,3.20
2024-01-26T10:26:52.463Z,2.83
2024-01-26T10:29:54.468Z,3.00
2024-01-26T10:32:56.453Z,2.83
2024-01-26T10:35:58.857Z,3.30
2024-01-26T10:39:02.797Z,3.30
2024-01-26T10:42:06.026Z,3.75
2024-01-26T10:45:11.943Z,3.00
2024-01-26T10:48:14.829Z,3.55
2024-01-26T10:51:18.846Z,2.92
2024-01-26T10:54:22.450Z,3.10
2024-01-26T10:57:23.866Z,3.20
2024-01-26T11:00:26.020Z,2.88
2024-01-26T11:03:28.154Z,2.78
2024-01-26T11:06:30.448Z,3.28
2024-01-26T11:09:34.105Z,2.97
2024-01-26T11:12:35.866Z,2.92
2024-01-26T11:15:37.688Z,3.13
2024-01-26T11:18:39.900Z,4.55
2024-01-26T11:21:45.525Z,3.90
2024-01-26T11:24:46.868Z,3.00
2024-01-26T11:27:48.355Z,2.58
2024-01-26T11:30:58.612Z,2.78
2024-01-26T11:34:00.342Z,1.92
2024-01-26T11:37:12.565Z,1.63
2024-01-26T11:40:14.227Z,2.10
2024-01-26T11:43:15.670Z,1.42
2024-01-26T11:46:18.107Z,1.95
2024-01-26T11:49:19.781Z,1.75
2024-01-26T11:52:23.092Z,1.73
2024-01-26T11:55:27.049Z,1.80
2024-01-26T11:58:28.450Z,1.90
2024-01-26T12:01:29.808Z,1.58
2024-01-26T12:04:31.261Z,1.23
2024-01-26T12:07:32.599Z,1.50
2024-01-26T12:10:37.308Z,1.65
2024-01-26T12:13:39.154Z,1.63
2024-01-26T12:16:41.609Z,1.25
2024-01-26T12:19:43.082Z,1.15
2024-01-26T12:22:45.570Z,1.40
2024-01-26T12:25:49.784Z,1.35
2024-01-26T12:28:51.109Z,1.25
2024-01-26T12:31:52.473Z,1.30
2024-01-26T12:34:53.955Z,1.30
2024-01-26T12:37:56.252Z,1.02
2024-01-26T12:40:57.709Z,1.08
2024-01-26T12:43:59.714Z,1.38
2024-01-26T12:47:01.371Z,0.98
2024-01-26T12:50:02.833Z,1.42
2024-01-26T12:53:04.554Z,1.13
2024-01-26T12:56:06.104Z,1.42
2024-01-26T12:59:07.438Z,1.23
2024-01-26T13:02:08.827Z,1.10
2024-01-26T13:05:11.097Z,1.33
2024-01-26T13:08:13.267Z,1.23
2024-01-26T13:11:16.357Z,1.35
2024-01-26T13:14:17.721Z,1.20
2024-01-26T13:17:19.071Z,1.05
2024-01-26T13:20:21.404Z,2.38
2024-01-26T13:23:24.761Z,1.70
2024-01-26T13:26:26.298Z,1.13
2024-01-26T13:29:27.594Z,1.20
2024-01-26T13:32:28.946Z,1.20
2024-01-26T13:35:30.268Z,1.63
2024-01-26T13:38:33.492Z,1.23
2024-01-26T13:41:34.816Z,1.10
2024-01-26T13:44:36.205Z,1.10
2024-01-26T13:47:37.579Z,1.17
2024-01-26T13:50:39.964Z,1.20
2024-01-26T13:53:41.633Z,1.05
2024-01-26T13:56:44.661Z,1.35
2024-01-26T13:59:46.106Z,1.13
2024-01-26T14:02:47.490Z,1.33
2024-01-26T14:05:49.276Z,1.30
2024-01-26T14:08:51.007Z,1.23
2024-01-26T14:11:55.051Z,1.23
2024-01-26T14:15:01.001Z,1.40
2024-01-26T14:18:02.561Z,1.40
2024-01-26T14:21:03.998Z,0.93
2024-01-26T14:24:06.099Z,1.13
2024-01-26T14:27:08.881Z,1.15
2024-01-26T14:30:12.430Z,1.08
2024-01-26T14:33:14.760Z,0.98
2024-01-26T14:36:16.234Z,0.98
2024-01-26T14:39:17.741Z,1.00
2024-01-26T14:42:19.151Z,0.93
2024-01-26T14:45:20.575Z,1.00
2024-01-26T14:48:25.049Z,0.82
2024-01-26T14:54:27.890Z,0.90
2024-01-26T14:57:32.031Z,1.05
2024-01-26T15:00:33.435Z,1.00
2024-01-26T15:03:36.062Z,1.00
2024-01-26T15:06:37.652Z,0.88
2024-01-26T15:09:39.138Z,1.13
2024-01-26T15:12:40.607Z,1.15
2024-01-26T15:15:42.004Z,1.10
2024-01-26T15:18:43.536Z,1.48
2024-01-26T15:21:45.236Z,1.73
2024-01-26T15:24:49.326Z,1.05
2024-01-26T15:27:51.640Z,1.52
2024-01-26T15:30:52.997Z,1.38
2024-01-26T15:33:55.079Z,1.13
2024-01-26T15:36:57.466Z,1.38
2024-01-26T15:40:00.755Z,1.00
2024-01-26T15:43:02.071Z,1.30
2024-01-26T15:46:03.493Z,1.30
2024-01-26T15:49:06.361Z,1.50
2024-01-26T15:52:07.918Z,1.63
2024-01-26T15:55:09.826Z,1.40
2024-01-26T15:58:11.194Z,1.75
2024-01-26T16:01:12.568Z,1.55
2024-01-26T16:04:13.961Z,1.75
2024-01-26T16:07:17.617Z,1.98
2024-01-26T16:10:18.946Z,1.65
2024-01-26T16:13:24.481Z,1.60
2024-01-26T16:16:25.863Z,2.50
2024-01-26T16:19:28.212Z,2.20
2024-01-26T16:22:30.572Z,1.35
2024-01-26T16:25:34.485Z,1.80
2024-01-26T16:28:36.997Z,1.75
2024-01-26T16:31:40.325Z,1.40
2024-01-26T16:34:41.685Z,1.50
2024-01-26T16:37:43.038Z,1.10
2024-01-26T16:40:45.692Z,1.27
2024-01-26T16:43:47.202Z,1.13
2024-01-26T16:46:48.466Z,1.55
2024-01-26T16:49:54.727Z,0.88
2024-01-26T16:52:56.138Z,1.15
2024-01-26T16:56:00.602Z,1.50
2024-01-26T16:59:01.924Z,1.67
2024-01-26T17:02:03.471Z,1.50
2024-01-26T17:05:05.038Z,1.73
2024-01-26T17:08:06.600Z,1.48
2024-01-26T17:11:08.195Z,1.60
2024-01-26T17:14:09.495Z,1.33
2024-01-26T17:17:10.857Z,1.83
2024-01-26T17:20:12.323Z,1.98
2024-01-26T17:23:13.733Z,2.05
2024-01-26T17:26:15.220Z,1.90
2024-01-26T17:29:19.203Z,2.25
2024-01-26T17:32:22.450Z,1.90
2024-01-26T17:35:24.074Z,1.48
2024-01-26T17:38:31.109Z,1.33
2024-01-26T17:41:32.522Z,1.27
2024-01-26T17:44:33.926Z,1.45
2024-01-26T17:47:35.376Z,1.63
2024-01-26T17:50:36.856Z,1.55
2024-01-26T17:53:38.388Z,1.55
2024-01-26T17:56:42.413Z,1.67
2024-01-26T17:59:44.887Z,1.52
2024-01-26T18:02:46.439Z,2.25
2024-01-26T18:05:47.920Z,1.92
2024-01-26T18:08:50.698Z,1.40
2024-01-26T18:11:52.150Z,1.75
2024-01-26T18:14:56.695Z,1.73
2024-01-26T18:17:59.970Z,1.75
2024-01-26T18:21:04.047Z,1.23
2024-01-26T18:24:05.599Z,1.38
2024-01-26T18:27:07.049Z,1.83
2024-01-26T18:30:08.587Z,1.90
2024-01-26T18:33:10.207Z,1.92
2024-01-26T18:36:15.061Z,1.80
2024-01-26T18:39:16.391Z,1.65
2024-01-26T18:42:19.041Z,2.28
2024-01-26T18:45:20.511Z,1.88
2024-01-26T18:48:23.124Z,2.17
2024-01-26T18:51:25.152Z,2.25
2024-01-26T18:54:26.860Z,2.25
2024-01-26T18:57:29.294Z,2.10
2024-01-26T19:00:31.468Z,2.65
2024-01-26T19:03:33.054Z,2.40
2024-01-26T19:06:34.556Z,2.00
2024-01-26T19:09:36.549Z,2.40
2024-01-26T19:12:39.141Z,2.30
2024-01-26T19:15:40.543Z,2.35
2024-01-26T19:18:42.138Z,2.10
2024-01-26T19:21:44.772Z,1.98
2024-01-26T19:24:46.352Z,1.95
2024-01-26T19:27:47.748Z,2.15
2024-01-26T19:30:49.096Z,2.33
2024-01-26T19:33:50.568Z,2.30
2024-01-26T19:36:52.017Z,1.92
2024-01-26T19:39:53.402Z,2.05
2024-01-26T19:42:54.761Z,2.55
2024-01-26T19:45:56.055Z,2.25
2024-01-26T19:48:57.780Z,2.38
2024-01-26T19:51:59.375Z,2.80
2024-01-26T19:55:00.948Z,2.35
2024-01-26T19:58:02.286Z,2.25
2024-01-26T20:01:03.821Z,2.30
2024-01-26T20:04:05.334Z,2.60
2024-01-26T20:07:08.162Z,2.70
2024-01-26T20:10:11.675Z,3.67
2024-01-26T20:13:13.109Z,3.45
2024-01-26T20:16:16.799Z,2.92
2024-01-26T20:19:18.837Z,2.35
2024-01-26T20:22:20.305Z,1.70
2024-01-26T20:25:21.801Z,3.20
2024-01-26T20:28:23.491Z,1.60
2024-01-26T20:31:25.133Z,2.53
2024-01-26T20:34:26.775Z,2.13
2024-01-26T20:37:28.267Z,4.72
2024-01-26T20:40:30.003Z,2.58
2024-01-26T20:43:31.694Z,2.00
2024-01-26T20:46:33.171Z,2.75
2024-01-26T20:49:34.635Z,2.90
2024-01-26T20:52:36.061Z,2.47
2024-01-26T20:55:37.669Z,2.65
2024-01-26T20:58:39.044Z,2.83
2024-01-26T21:01:40.572Z,2.85
2024-01-26T21:04:41.897Z,2.90
2024-01-26T21:07:54.313Z,2.33
2024-01-26T21:10:55.617Z,2.33
2024-01-26T21:13:56.946Z,2.50
2024-01-26T21:16:59.959Z,2.65
2024-01-26T21:20:02.020Z,3.05
2024-01-26T21:23:03.458Z,3.28
2024-01-26T21:26:06.380Z,3.15
2024-01-26T21:29:07.702Z,2.40
2024-01-26T21:32:13.273Z,3.00
2024-01-26T21:35:14.716Z,4.38
2024-01-26T21:38:16.208Z,3.95
2024-01-26T21:41:17.505Z,3.60
2024-01-26T21:44:22.959Z,3.72
2024-01-26T21:47:27.467Z,3.15
2024-01-26T21:50:28.800Z,3.10
2024-01-26T21:53:30.649Z,2.63
2024-01-26T21:56:33.856Z,2.83
2024-01-26T21:59:35.377Z,2.70
2024-01-26T22:02:36.794Z,2.58
2024-01-26T22:05:38.137Z,2.42
2024-01-26T22:08:40.000Z,2.97
2024-01-26T22:11:41.369Z,2.38
2024-01-26T22:14:42.850Z,3.72
2024-01-26T22:17:44.375Z,3.33
2024-01-26T22:20:46.330Z,3.45
2024-01-26T22:23:47.760Z,2.28
2024-01-26T22:26:49.364Z,2.25
2024-01-26T22:29:55.860Z,2.30
2024-01-26T22:32:57.356Z,2.88
2024-01-26T22:35:58.845Z,3.15
2024-01-26T22:39:00.312Z,3.65
2024-01-26T22:42:01.948Z,4.97
2024-01-26T22:45:03.971Z,3.70
2024-01-26T22:48:06.059Z,2.75
2024-01-26T22:51:07.527Z,3.63
2024-01-26T22:54:08.853Z,4.13
2024-01-26T22:57:10.384Z,4.03
2024-01-26T23:00:25.289Z,4.43
2024-01-26T23:03:26.796Z,2.97
2024-01-26T23:06:28.235Z,3.35
2024-01-26T23:09:29.697Z,3.50
2024-01-26T23:12:31.198Z,3.17
2024-01-26T23:15:32.640Z,2.75
2024-01-26T23:18:34.138Z,2.90
2024-01-26T23:21:35.465Z,2.75
2024-01-26T23:24:37.306Z,3.50
2024-01-26T23:27:38.763Z,2.72
2024-01-26T23:30:40.497Z,2.72
2024-01-26T23:33:42.008Z,2.40
2024-01-26T23:36:43.403Z,2.88
2024-01-26T23:39:44.884Z,2.75
2024-01-26T23:42:46.239Z,3.10
2024-01-26T23:45:47.532Z,2.92
2024-01-26T23:48:51.657Z,3.00
2024-01-26T23:51:53.355Z,2.63
2024-01-26T23:54:56.150Z,2.55
2024-01-26T23:57:57.574Z,2.80
